sensor_id;sensor_type;location;lat;lon;timestamp;pressure;altitude;pressure_sealevel;temperature;humidity
30421;BME280;17218;54.070;10.012;2022-07-25T00:00:00;101022.41;;;20.20;100.00
30421;BME280;17218;54.070;10.012;2022-07-25T00:02:28;101018.00;;;20.21;100.00
30421;BME280;17218;54.070;10.012;2022-07-25T00:04:54;101016.88;;;20.26;100.00
30421;BME280;17218;54.070;10.012;2022-07-25T00:07:21;101006.13;;;20.31;100.00
30421;BME280;17218;54.070;10.012;2022-07-25T00:09:48;101008.63;;;20.34;100.00
30421;BME280;17218;54.070;10.012;2022-07-25T00:12:14;101005.28;;;20.31;100.00
30421;BME280;17218;54.070;10.012;2022-07-25T00:14:41;101008.19;;;20.24;100.00
30421;BME280;17218;54.070;10.012;2022-07-25T00:17:08;101005.63;;;20.23;100.00
30421;BME280;17218;54.070;10.012;2022-07-25T00:19:36;101008.06;;;20.28;100.00
30421;BME280;17218;54.070;10.012;2022-07-25T00:22:02;101001.81;;;20.30;100.00
30421;BME280;17218;54.070;10.012;2022-07-25T00:24:29;100996.47;;;20.32;100.00
30421;BME280;17218;54.070;10.012;2022-07-25T00:26:56;101001.84;;;20.29;100.00
30421;BME280;17218;54.070;10.012;2022-07-25T00:29:22;100994.13;;;20.25;100.00
30421;BME280;17218;54.070;10.012;2022-07-25T00:31:49;100993.00;;;20.31;100.00
30421;BME280;17218;54.070;10.012;2022-07-25T00:34:15;100987.88;;;20.28;100.00
30421;BME280;17218;54.070;10.012;2022-07-25T00:36:43;100983.44;;;20.29;100.00
30421;BME280;17218;54.070;10.012;2022-07-25T00:39:10;100988.78;;;20.27;100.00
30421;BME280;17218;54.070;10.012;2022-07-25T00:41:37;100974.78;;;20.26;100.00
30421;BME280;17218;54.070;10.012;2022-07-25T00:44:04;100981.03;;;20.24;100.00
30421;BME280;17218;54.070;10.012;2022-07-25T00:46:30;100976.81;;;20.20;100.00
30421;BME280;17218;54.070;10.012;2022-07-25T00:48:57;100979.34;;;20.23;100.00
30421;BME280;17218;54.070;10.012;2022-07-25T00:51:24;100971.31;;;20.26;100.00
30421;BME280;17218;54.070;10.012;2022-07-25T00:53:52;100980.38;;;20.19;100.00
30421;BME280;17218;54.070;10.012;2022-07-25T00:56:18;100972.84;;;20.11;100.00
30421;BME280;17218;54.070;10.012;2022-07-25T00:58:45;100985.00;;;20.13;100.00
30421;BME280;17218;54.070;10.012;2022-07-25T01:01:11;100977.69;;;20.20;100.00
30421;BME280;17218;54.070;10.012;2022-07-25T01:03:38;100972.34;;;20.22;100.00
30421;BME280;17218;54.070;10.012;2022-07-25T01:06:05;100971.56;;;20.20;100.00
30421;BME280;17218;54.070;10.012;2022-07-25T01:08:33;100975.06;;;20.20;100.00
30421;BME280;17218;54.070;10.012;2022-07-25T01:11:01;100968.16;;;20.18;100.00
30421;BME280;17218;54.070;10.012;2022-07-25T01:13:31;100969.94;;;20.17;100.00
30421;BME280;17218;54.070;10.012;2022-07-25T01:15:57;100965.81;;;20.11;100.00
30421;BME280;17218;54.070;10.012;2022-07-25T01:18:24;100968.50;;;20.10;100.00
30421;BME280;17218;54.070;10.012;2022-07-25T01:20:52;100962.38;;;20.09;100.00
30421;BME280;17218;54.070;10.012;2022-07-25T01:23:18;100967.66;;;20.09;100.00
30421;BME280;17218;54.070;10.012;2022-07-25T01:25:45;100965.91;;;20.08;100.00
30421;BME280;17218;54.070;10.012;2022-07-25T01:28:12;100964.81;;;19.93;100.00
30421;BME280;17218;54.070;10.012;2022-07-25T01:30:39;100955.47;;;19.86;100.00
30421;BME280;17218;54.070;10.012;2022-07-25T01:33:05;100952.50;;;19.94;100.00
30421;BME280;17218;54.070;10.012;2022-07-25T01:35:32;100943.78;;;19.93;100.00
30421;BME280;17218;54.070;10.012;2022-07-25T01:38:00;100939.50;;;19.90;100.00
30421;BME280;17218;54.070;10.012;2022-07-25T01:40:26;100937.84;;;19.88;100.00
30421;BME280;17218;54.070;10.012;2022-07-25T01:42:53;100928.25;;;19.87;100.00
30421;BME280;17218;54.070;10.012;2022-07-25T01:45:20;100923.16;;;19.84;100.00
30421;BME280;17218;54.070;10.012;2022-07-25T01:47:46;100925.78;;;19.84;100.00
30421;BME280;17218;54.070;10.012;2022-07-25T01:50:13;100912.81;;;19.79;100.00
30421;BME280;17218;54.070;10.012;2022-07-25T01:52:39;100913.69;;;19.79;100.00
30421;BME280;17218;54.070;10.012;2022-07-25T01:55:09;100908.28;;;19.83;100.00
30421;BME280;17218;54.070;10.012;2022-07-25T01:57:36;100908.22;;;19.84;100.00
30421;BME280;17218;54.070;10.012;2022-07-25T02:00:04;100910.97;;;19.81;100.00
30421;BME280;17218;54.070;10.012;2022-07-25T02:02:31;100902.38;;;19.77;100.00
30421;BME280;17218;54.070;10.012;2022-07-25T02:04:58;100901.53;;;19.77;100.00
30421;BME280;17218;54.070;10.012;2022-07-25T02:07:24;100903.25;;;19.78;100.00
30421;BME280;17218;54.070;10.012;2022-07-25T02:09:51;100899.91;;;19.74;100.00
30421;BME280;17218;54.070;10.012;2022-07-25T02:12:19;100890.69;;;19.64;100.00
30421;BME280;17218;54.070;10.012;2022-07-25T02:14:46;100889.94;;;19.62;100.00
30421;BME280;17218;54.070;10.012;2022-07-25T02:17:12;100883.75;;;19.63;100.00
30421;BME280;17218;54.070;10.012;2022-07-25T02:19:39;100879.47;;;19.60;100.00
30421;BME280;17218;54.070;10.012;2022-07-25T02:22:06;100882.22;;;19.57;100.00
30421;BME280;17218;54.070;10.012;2022-07-25T02:24:32;100874.50;;;19.54;100.00
30421;BME280;17218;54.070;10.012;2022-07-25T02:27:01;100871.06;;;19.52;100.00
30421;BME280;17218;54.070;10.012;2022-07-25T02:29:29;100864.31;;;19.46;100.00
30421;BME280;17218;54.070;10.012;2022-07-25T02:31:56;100861.75;;;19.45;100.00
30421;BME280;17218;54.070;10.012;2022-07-25T02:34:23;100862.66;;;19.43;100.00
30421;BME280;17218;54.070;10.012;2022-07-25T02:36:50;100856.50;;;19.45;100.00
30421;BME280;17218;54.070;10.012;2022-07-25T02:39:16;100851.38;;;19.41;100.00
30421;BME280;17218;54.070;10.012;2022-07-25T02:41:43;100848.94;;;19.37;100.00
30421;BME280;17218;54.070;10.012;2022-07-25T02:44:11;100847.34;;;19.33;100.00
30421;BME280;17218;54.070;10.012;2022-07-25T02:46:39;100836.91;;;19.31;100.00
30421;BME280;17218;54.070;10.012;2022-07-25T02:49:06;100838.66;;;19.32;100.00
30421;BME280;17218;54.070;10.012;2022-07-25T02:51:32;100837.84;;;19.30;100.00
30421;BME280;17218;54.070;10.012;2022-07-25T02:53:59;100829.19;;;19.28;100.00
30421;BME280;17218;54.070;10.012;2022-07-25T02:56:26;100818.94;;;19.22;100.00
30421;BME280;17218;54.070;10.012;2022-07-25T02:58:52;100832.34;;;19.15;100.00
30421;BME280;17218;54.070;10.012;2022-07-25T03:01:19;100831.47;;;19.15;100.00
30421;BME280;17218;54.070;10.012;2022-07-25T03:03:47;100827.16;;;19.14;100.00
30421;BME280;17218;54.070;10.012;2022-07-25T03:06:13;100820.19;;;19.13;100.00
30421;BME280;17218;54.070;10.012;2022-07-25T03:08:40;100820.22;;;19.11;100.00
30421;BME280;17218;54.070;10.012;2022-07-25T03:11:06;100815.91;;;19.10;100.00
30421;BME280;17218;54.070;10.012;2022-07-25T03:13:33;100814.09;;;19.11;100.00
30421;BME280;17218;54.070;10.012;2022-07-25T03:15:59;100813.31;;;19.08;100.00
30421;BME280;17218;54.070;10.012;2022-07-25T03:18:26;100803.66;;;19.09;100.00
30421;BME280;17218;54.070;10.012;2022-07-25T03:20:54;100800.16;;;19.10;100.00
30421;BME280;17218;54.070;10.012;2022-07-25T03:23:20;100797.44;;;19.12;100.00
30421;BME280;17218;54.070;10.012;2022-07-25T03:25:49;100804.28;;;19.16;100.00
30421;BME280;17218;54.070;10.012;2022-07-25T03:28:15;100798.13;;;19.17;100.00
30421;BME280;17218;54.070;10.012;2022-07-25T03:30:42;100795.66;;;19.14;100.00
30421;BME280;17218;54.070;10.012;2022-07-25T03:33:09;100797.34;;;19.15;100.00
30421;BME280;17218;54.070;10.012;2022-07-25T03:35:36;100779.63;;;19.20;100.00
30421;BME280;17218;54.070;10.012;2022-07-25T03:38:04;100781.28;;;19.23;100.00
30421;BME280;17218;54.070;10.012;2022-07-25T03:40:30;100783.88;;;19.23;100.00
30421;BME280;17218;54.070;10.012;2022-07-25T03:42:57;100780.88;;;19.32;100.00
30421;BME280;17218;54.070;10.012;2022-07-25T03:45:24;100760.34;;;19.40;100.00
30421;BME280;17218;54.070;10.012;2022-07-25T03:47:50;100766.41;;;19.42;100.00
30421;BME280;17218;54.070;10.012;2022-07-25T03:50:17;100766.31;;;19.44;100.00
30421;BME280;17218;54.070;10.012;2022-07-25T03:52:44;100763.28;;;19.53;100.00
30421;BME280;17218;54.070;10.012;2022-07-25T03:55:12;100751.44;;;19.64;100.00
30421;BME280;17218;54.070;10.012;2022-07-25T03:57:38;100744.94;;;19.73;100.00
30421;BME280;17218;54.070;10.012;2022-07-25T04:00:07;100740.88;;;19.85;100.00
30421;BME280;17218;54.070;10.012;2022-07-25T04:02:34;100735.53;;;19.86;100.00
30421;BME280;17218;54.070;10.012;2022-07-25T04:05:02;100736.91;;;19.95;100.00
30421;BME280;17218;54.070;10.012;2022-07-25T04:07:28;100735.72;;;20.01;100.00
30421;BME280;17218;54.070;10.012;2022-07-25T04:09:55;100722.19;;;20.10;100.00
30421;BME280;17218;54.070;10.012;2022-07-25T04:12:23;100725.31;;;20.19;100.00
30421;BME280;17218;54.070;10.012;2022-07-25T04:14:50;100723.84;;;20.31;100.00
30421;BME280;17218;54.070;10.012;2022-07-25T04:17:16;100719.84;;;20.41;100.00
30421;BME280;17218;54.070;10.012;2022-07-25T04:19:43;100716.91;;;20.47;100.00
30421;BME280;17218;54.070;10.012;2022-07-25T04:22:09;100713.97;;;20.54;100.00
30421;BME280;17218;54.070;10.012;2022-07-25T04:24:36;100706.00;;;20.55;100.00
30421;BME280;17218;54.070;10.012;2022-07-25T04:27:03;100705.09;;;20.56;100.00
30421;BME280;17218;54.070;10.012;2022-07-25T04:29:31;100702.03;;;20.64;100.00
30421;BME280;17218;54.070;10.012;2022-07-25T04:31:57;100705.78;;;20.78;100.00
30421;BME280;17218;54.070;10.012;2022-07-25T04:34:24;100699.09;;;20.88;100.00
30421;BME280;17218;54.070;10.012;2022-07-25T04:36:50;100693.81;;;20.88;100.00
30421;BME280;17218;54.070;10.012;2022-07-25T04:39:17;100693.59;;;20.93;100.00
30421;BME280;17218;54.070;10.012;2022-07-25T04:41:44;100689.84;;;20.99;100.00
30421;BME280;17218;54.070;10.012;2022-07-25T04:44:10;100690.34;;;21.05;100.00
30421;BME280;17218;54.070;10.012;2022-07-25T04:46:39;100688.88;;;21.17;100.00
30421;BME280;17218;54.070;10.012;2022-07-25T04:49:05;100682.25;;;21.26;100.00
30421;BME280;17218;54.070;10.012;2022-07-25T04:51:32;100683.03;;;21.28;100.00
30421;BME280;17218;54.070;10.012;2022-07-25T04:53:58;100676.72;;;21.31;100.00
30421;BME280;17218;54.070;10.012;2022-07-25T04:56:25;100672.91;;;21.37;100.00
30421;BME280;17218;54.070;10.012;2022-07-25T04:58:51;100672.72;;;21.40;100.00
30421;BME280;17218;54.070;10.012;2022-07-25T05:01:18;100677.00;;;21.42;100.00
30421;BME280;17218;54.070;10.012;2022-07-25T05:03:46;100663.50;;;21.49;100.00
30421;BME280;17218;54.070;10.012;2022-07-25T05:06:13;100661.53;;;21.52;100.00
30421;BME280;17218;54.070;10.012;2022-07-25T05:08:39;100658.47;;;21.60;100.00
30421;BME280;17218;54.070;10.012;2022-07-25T05:11:06;100655.41;;;21.68;100.00
30421;BME280;17218;54.070;10.012;2022-07-25T05:13:32;100660.34;;;21.74;100.00
30421;BME280;17218;54.070;10.012;2022-07-25T05:15:59;100650.22;;;21.83;100.00
30421;BME280;17218;54.070;10.012;2022-07-25T05:18:25;100647.34;;;21.87;100.00
30421;BME280;17218;54.070;10.012;2022-07-25T05:20:53;100644.53;;;21.90;100.00
30421;BME280;17218;54.070;10.012;2022-07-25T05:23:20;100643.34;;;21.96;100.00
30421;BME280;17218;54.070;10.012;2022-07-25T05:25:46;100643.25;;;21.98;100.00
30421;BME280;17218;54.070;10.012;2022-07-25T05:28:13;100640.50;;;21.99;100.00
30421;BME280;17218;54.070;10.012;2022-07-25T05:30:40;100638.44;;;22.04;100.00
30421;BME280;17218;54.070;10.012;2022-07-25T05:33:06;100626.03;;;22.07;100.00
30421;BME280;17218;54.070;10.012;2022-07-25T05:35:33;100629.34;;;22.10;100.00
30421;BME280;17218;54.070;10.012;2022-07-25T05:38:01;100621.09;;;22.16;100.00
30421;BME280;17218;54.070;10.012;2022-07-25T05:40:27;100621.00;;;22.18;100.00
30421;BME280;17218;54.070;10.012;2022-07-25T05:42:54;100612.53;;;22.27;100.00
30421;BME280;17218;54.070;10.012;2022-07-25T05:45:21;100605.38;;;22.30;100.00
30421;BME280;17218;54.070;10.012;2022-07-25T05:47:47;100609.59;;;22.32;100.00
30421;BME280;17218;54.070;10.012;2022-07-25T05:50:14;100617.94;;;22.40;100.00
30421;BME280;17218;54.070;10.012;2022-07-25T05:52:40;100609.81;;;22.44;100.00
30421;BME280;17218;54.070;10.012;2022-07-25T05:55:09;100609.66;;;22.47;100.00
30421;BME280;17218;54.070;10.012;2022-07-25T05:57:35;100613.22;;;22.46;100.00
30421;BME280;17218;54.070;10.012;2022-07-25T06:00:04;100611.25;;;22.49;100.00
30421;BME280;17218;54.070;10.012;2022-07-25T06:02:31;100607.09;;;22.60;100.00
30421;BME280;17218;54.070;10.012;2022-07-25T06:04:58;100604.22;;;22.64;100.00
30421;BME280;17218;54.070;10.012;2022-07-25T06:07:24;100593.38;;;22.69;100.00
30421;BME280;17218;54.070;10.012;2022-07-25T06:09:51;100594.78;;;22.75;100.00
30421;BME280;17218;54.070;10.012;2022-07-25T06:12:19;100589.91;;;22.83;100.00
30421;BME280;17218;54.070;10.012;2022-07-25T06:14:45;100583.31;;;22.91;100.00
30421;BME280;17218;54.070;10.012;2022-07-25T06:17:12;100589.03;;;22.97;100.00
30421;BME280;17218;54.070;10.012;2022-07-25T06:19:38;100587.72;;;23.05;100.00
30421;BME280;17218;54.070;10.012;2022-07-25T06:22:05;100574.88;;;23.13;100.00
30421;BME280;17218;54.070;10.012;2022-07-25T06:24:33;100576.06;;;23.22;99.33
30421;BME280;17218;54.070;10.012;2022-07-25T06:27:00;100582.78;;;23.28;100.00
30421;BME280;17218;54.070;10.012;2022-07-25T06:29:28;100579.34;;;23.40;100.00
30421;BME280;17218;54.070;10.012;2022-07-25T06:31:54;100575.09;;;23.52;100.00
30421;BME280;17218;54.070;10.012;2022-07-25T06:34:21;100570.03;;;23.62;100.00
30421;BME280;17218;54.070;10.012;2022-07-25T06:36:47;100576.97;;;23.78;100.00
30421;BME280;17218;54.070;10.012;2022-07-25T06:39:14;100570.00;;;23.90;99.17
30421;BME280;17218;54.070;10.012;2022-07-25T06:41:40;100574.13;;;23.94;96.86
30421;BME280;17218;54.070;10.012;2022-07-25T06:44:07;100570.03;;;24.03;97.17
30421;BME280;17218;54.070;10.012;2022-07-25T06:46:35;100578.19;;;24.00;91.66
30421;BME280;17218;54.070;10.012;2022-07-25T06:49:02;100573.00;;;23.98;92.26
30421;BME280;17218;54.070;10.012;2022-07-25T06:51:28;100571.00;;;24.02;94.31
30421;BME280;17218;54.070;10.012;2022-07-25T06:53:55;100567.72;;;24.11;94.29
30421;BME280;17218;54.070;10.012;2022-07-25T06:56:21;100566.53;;;24.15;94.54
30421;BME280;17218;54.070;10.012;2022-07-25T06:58:48;100558.41;;;24.18;95.93
30421;BME280;17218;54.070;10.012;2022-07-25T07:01:15;100559.09;;;24.22;95.95
30421;BME280;17218;54.070;10.012;2022-07-25T07:03:43;100544.13;;;24.34;96.44
30421;BME280;17218;54.070;10.012;2022-07-25T07:06:09;100552.41;;;24.42;95.22
30421;BME280;17218;54.070;10.012;2022-07-25T07:08:36;100539.59;;;24.49;92.66
30421;BME280;17218;54.070;10.012;2022-07-25T07:11:03;100542.44;;;24.59;92.73
30421;BME280;17218;54.070;10.012;2022-07-25T07:13:30;100540.84;;;24.70;92.16
30421;BME280;17218;54.070;10.012;2022-07-25T07:15:56;100530.97;;;24.72;95.37
30421;BME280;17218;54.070;10.012;2022-07-25T07:18:23;100538.47;;;24.78;95.08
30421;BME280;17218;54.070;10.012;2022-07-25T07:20:51;100526.81;;;24.81;98.22
30421;BME280;17218;54.070;10.012;2022-07-25T07:23:18;100511.13;;;24.90;96.82
30421;BME280;17218;54.070;10.012;2022-07-25T07:25:45;100520.66;;;24.93;97.91
30421;BME280;17218;54.070;10.012;2022-07-25T07:28:12;100508.34;;;25.05;95.49
30421;BME280;17218;54.070;10.012;2022-07-25T07:30:39;100517.06;;;25.19;95.24
30421;BME280;17218;54.070;10.012;2022-07-25T07:33:06;100501.47;;;25.27;89.07
30421;BME280;17218;54.070;10.012;2022-07-25T07:35:32;100500.28;;;25.31;91.01
30421;BME280;17218;54.070;10.012;2022-07-25T07:38:00;100505.53;;;25.56;86.33
30421;BME280;17218;54.070;10.012;2022-07-25T07:40:27;100495.47;;;25.61;82.36
30421;BME280;17218;54.070;10.012;2022-07-25T07:42:53;100493.81;;;25.71;77.52
30421;BME280;17218;54.070;10.012;2022-07-25T07:45:23;100502.41;;;25.75;80.63
30421;BME280;17218;54.070;10.012;2022-07-25T07:47:52;100496.84;;;25.78;82.67
30421;BME280;17218;54.070;10.012;2022-07-25T07:50:21;100497.97;;;25.87;83.64
30421;BME280;17218;54.070;10.012;2022-07-25T07:52:49;100480.97;;;26.01;82.09
30421;BME280;17218;54.070;10.012;2022-07-25T07:55:17;100474.47;;;26.05;80.96
30421;BME280;17218;54.070;10.012;2022-07-25T07:58:02;100470.97;;;26.16;79.62
30421;BME280;17218;54.070;10.012;2022-07-25T08:00:30;100470.59;;;26.21;86.92
30421;BME280;17218;54.070;10.012;2022-07-25T08:02:57;100471.34;;;26.23;81.07
30421;BME280;17218;54.070;10.012;2022-07-25T08:05:28;100470.63;;;26.32;78.41
30421;BME280;17218;54.070;10.012;2022-07-25T08:07:55;100472.94;;;26.37;79.29
30421;BME280;17218;54.070;10.012;2022-07-25T08:10:26;100468.09;;;26.54;82.61
30421;BME280;17218;54.070;10.012;2022-07-25T08:12:53;100462.63;;;26.67;76.40
30421;BME280;17218;54.070;10.012;2022-07-25T08:15:20;100458.13;;;26.90;73.13
30421;BME280;17218;54.070;10.012;2022-07-25T08:17:48;100457.97;;;27.03;70.43
30421;BME280;17218;54.070;10.012;2022-07-25T08:20:16;100451.25;;;27.21;68.41
30421;BME280;17218;54.070;10.012;2022-07-25T08:22:46;100453.56;;;27.25;68.43
30421;BME280;17218;54.070;10.012;2022-07-25T08:25:14;100446.22;;;27.39;70.34
30421;BME280;17218;54.070;10.012;2022-07-25T08:27:42;100443.81;;;27.57;66.25
30421;BME280;17218;54.070;10.012;2022-07-25T08:30:10;100436.56;;;27.81;74.37
30421;BME280;17218;54.070;10.012;2022-07-25T08:32:45;100444.28;;;28.15;68.92
30421;BME280;17218;54.070;10.012;2022-07-25T08:35:12;100421.69;;;28.41;63.10
30421;BME280;17218;54.070;10.012;2022-07-25T08:37:38;100428.16;;;28.48;62.89
30421;BME280;17218;54.070;10.012;2022-07-25T08:40:06;100418.66;;;28.65;61.64
30421;BME280;17218;54.070;10.012;2022-07-25T08:42:33;100426.78;;;28.64;59.71
30421;BME280;17218;54.070;10.012;2022-07-25T08:45:03;100424.28;;;28.82;61.33
30421;BME280;17218;54.070;10.012;2022-07-25T08:47:31;100421.06;;;28.98;61.05
30421;BME280;17218;54.070;10.012;2022-07-25T08:49:58;100412.81;;;29.01;58.07
30421;BME280;17218;54.070;10.012;2022-07-25T08:52:26;100416.63;;;29.09;56.28
30421;BME280;17218;54.070;10.012;2022-07-25T08:54:53;100412.53;;;29.04;58.87
30421;BME280;17218;54.070;10.012;2022-07-25T08:57:19;100409.44;;;29.09;55.98
30421;BME280;17218;54.070;10.012;2022-07-25T08:59:46;100406.50;;;29.12;57.04
30421;BME280;17218;54.070;10.012;2022-07-25T09:02:14;100408.19;;;29.23;55.59
30421;BME280;17218;54.070;10.012;2022-07-25T09:04:40;100406.88;;;29.27;55.49
30421;BME280;17218;54.070;10.012;2022-07-25T09:07:08;100402.25;;;29.39;57.62
30421;BME280;17218;54.070;10.012;2022-07-25T09:09:39;100407.59;;;29.39;56.76
30421;BME280;17218;54.070;10.012;2022-07-25T09:12:06;100397.06;;;29.38;57.50
30421;BME280;17218;54.070;10.012;2022-07-25T09:14:40;100397.44;;;29.53;58.75
30421;BME280;17218;54.070;10.012;2022-07-25T09:17:07;100391.97;;;29.55;58.27
30421;BME280;17218;54.070;10.012;2022-07-25T09:19:35;100398.13;;;29.65;57.00
30421;BME280;17218;54.070;10.012;2022-07-25T09:22:03;100399.34;;;29.81;54.70
30421;BME280;17218;54.070;10.012;2022-07-25T09:24:31;100383.34;;;29.81;57.48
30421;BME280;17218;54.070;10.012;2022-07-25T09:27:00;100385.25;;;29.88;53.26
30421;BME280;17218;54.070;10.012;2022-07-25T09:29:28;100400.06;;;29.83;55.99
30421;BME280;17218;54.070;10.012;2022-07-25T09:31:57;100399.34;;;29.81;53.61
30421;BME280;17218;54.070;10.012;2022-07-25T09:34:32;100391.53;;;29.69;55.37
30421;BME280;17218;54.070;10.012;2022-07-25T09:37:01;100391.03;;;29.84;57.23
30421;BME280;17218;54.070;10.012;2022-07-25T09:39:32;100388.03;;;29.97;56.17
30421;BME280;17218;54.070;10.012;2022-07-25T09:41:59;100380.31;;;30.22;57.29
30421;BME280;17218;54.070;10.012;2022-07-25T09:44:26;100379.28;;;30.33;56.50
30421;BME280;17218;54.070;10.012;2022-07-25T09:46:55;100381.16;;;30.51;54.20
30421;BME280;17218;54.070;10.012;2022-07-25T09:49:21;100374.53;;;30.55;55.43
30421;BME280;17218;54.070;10.012;2022-07-25T09:51:48;100378.69;;;30.57;56.11
30421;BME280;17218;54.070;10.012;2022-07-25T09:54:16;100380.00;;;30.71;57.53
30421;BME280;17218;54.070;10.012;2022-07-25T09:56:44;100368.13;;;30.84;56.30
30421;BME280;17218;54.070;10.012;2022-07-25T09:59:10;100375.06;;;30.95;52.02
30421;BME280;17218;54.070;10.012;2022-07-25T10:01:41;100370.16;;;30.90;52.34
30421;BME280;17218;54.070;10.012;2022-07-25T10:04:18;100372.53;;;30.93;52.49
30421;BME280;17218;54.070;10.012;2022-07-25T10:06:51;100379.38;;;31.14;50.58
30421;BME280;17218;54.070;10.012;2022-07-25T10:09:22;100375.78;;;31.05;51.79
30421;BME280;17218;54.070;10.012;2022-07-25T10:12:02;100371.66;;;31.11;50.99
30421;BME280;17218;54.070;10.012;2022-07-25T10:14:29;100372.97;;;31.07;50.98
30421;BME280;17218;54.070;10.012;2022-07-25T10:16:57;100359.00;;;30.95;48.68
30421;BME280;17218;54.070;10.012;2022-07-25T10:19:41;100363.66;;;30.75;51.89
30421;BME280;17218;54.070;10.012;2022-07-25T10:22:10;100354.13;;;30.90;50.24
30421;BME280;17218;54.070;10.012;2022-07-25T10:24:42;100366.56;;;31.00;50.74
30421;BME280;17218;54.070;10.012;2022-07-25T10:27:11;100357.41;;;31.02;51.01
30421;BME280;17218;54.070;10.012;2022-07-25T10:29:39;100375.28;;;31.28;51.83
30421;BME280;17218;54.070;10.012;2022-07-25T10:32:08;100369.41;;;31.43;50.04
30421;BME280;17218;54.070;10.012;2022-07-25T10:34:36;100374.59;;;31.45;51.46
30421;BME280;17218;54.070;10.012;2022-07-25T10:37:10;100366.31;;;31.38;48.65
30421;BME280;17218;54.070;10.012;2022-07-25T10:39:39;100371.13;;;31.07;48.12
30421;BME280;17218;54.070;10.012;2022-07-25T10:42:06;100361.84;;;30.93;49.66
30421;BME280;17218;54.070;10.012;2022-07-25T10:44:42;100361.44;;;30.70;48.58
30421;BME280;17218;54.070;10.012;2022-07-25T10:47:10;100357.78;;;30.71;50.04
30421;BME280;17218;54.070;10.012;2022-07-25T10:49:39;100350.09;;;30.86;52.44
30421;BME280;17218;54.070;10.012;2022-07-25T10:52:06;100356.66;;;30.92;49.81
30421;BME280;17218;54.070;10.012;2022-07-25T10:54:34;100356.19;;;30.97;53.12
30421;BME280;17218;54.070;10.012;2022-07-25T10:57:04;100345.84;;;31.02;50.50
30421;BME280;17218;54.070;10.012;2022-07-25T10:59:33;100347.34;;;31.23;51.21
30421;BME280;17218;54.070;10.012;2022-07-25T11:02:01;100344.19;;;31.54;50.80
30421;BME280;17218;54.070;10.012;2022-07-25T11:04:28;100354.69;;;31.82;50.83
30421;BME280;17218;54.070;10.012;2022-07-25T11:06:55;100348.41;;;32.00;49.18
30421;BME280;17218;54.070;10.012;2022-07-25T11:09:24;100340.06;;;32.03;46.80
30421;BME280;17218;54.070;10.012;2022-07-25T11:11:53;100345.41;;;32.03;48.04
30421;BME280;17218;54.070;10.012;2022-07-25T11:14:23;100343.56;;;32.04;49.49
30421;BME280;17218;54.070;10.012;2022-07-25T11:16:52;100339.97;;;32.38;50.07
30421;BME280;17218;54.070;10.012;2022-07-25T11:19:22;100345.88;;;32.67;48.47
30421;BME280;17218;54.070;10.012;2022-07-25T11:21:51;100339.63;;;32.49;45.05
30421;BME280;17218;54.070;10.012;2022-07-25T11:24:18;100333.78;;;32.54;44.91
30421;BME280;17218;54.070;10.012;2022-07-25T11:26:46;100332.63;;;32.57;48.63
30421;BME280;17218;54.070;10.012;2022-07-25T11:29:24;100336.31;;;32.81;44.74
30421;BME280;17218;54.070;10.012;2022-07-25T11:31:56;100330.78;;;33.07;46.44
30421;BME280;17218;54.070;10.012;2022-07-25T11:34:25;100326.03;;;33.35;44.85
30421;BME280;17218;54.070;10.012;2022-07-25T11:36:54;100325.72;;;33.29;44.60
30421;BME280;17218;54.070;10.012;2022-07-25T11:39:23;100335.06;;;33.42;43.39
30421;BME280;17218;54.070;10.012;2022-07-25T11:41:58;100324.38;;;33.34;44.12
30421;BME280;17218;54.070;10.012;2022-07-25T11:44:37;100316.66;;;33.30;42.69
30421;BME280;17218;54.070;10.012;2022-07-25T11:47:06;100329.59;;;33.18;43.91
30421;BME280;17218;54.070;10.012;2022-07-25T11:49:43;100319.41;;;32.80;41.20
30421;BME280;17218;54.070;10.012;2022-07-25T11:52:18;100314.06;;;32.64;41.83
30421;BME280;17218;54.070;10.012;2022-07-25T11:54:49;100311.94;;;33.32;41.67
30421;BME280;17218;54.070;10.012;2022-07-25T11:57:19;100308.16;;;33.67;42.64
30421;BME280;17218;54.070;10.012;2022-07-25T11:59:47;100310.78;;;34.39;40.80
30421;BME280;17218;54.070;10.012;2022-07-25T12:02:20;100302.56;;;34.79;39.41
30421;BME280;17218;54.070;10.012;2022-07-25T12:04:53;100311.13;;;34.98;39.94
30421;BME280;17218;54.070;10.012;2022-07-25T12:07:19;100303.53;;;34.63;40.07
30421;BME280;17218;54.070;10.012;2022-07-25T12:09:54;100300.00;;;34.86;39.56
30421;BME280;17218;54.070;10.012;2022-07-25T12:12:21;100296.84;;;35.58;38.23
30421;BME280;17218;54.070;10.012;2022-07-25T12:14:49;100287.19;;;36.73;36.01
30421;BME280;17218;54.070;10.012;2022-07-25T12:17:16;100282.22;;;38.11;34.60
30421;BME280;17218;54.070;10.012;2022-07-25T12:19:44;100282.06;;;38.73;33.00
30421;BME280;17218;54.070;10.012;2022-07-25T12:22:11;100279.75;;;38.57;32.96
30421;BME280;17218;54.070;10.012;2022-07-25T12:24:38;100282.47;;;38.77;31.51
30421;BME280;17218;54.070;10.012;2022-07-25T12:27:04;100277.88;;;37.40;32.42
30421;BME280;17218;54.070;10.012;2022-07-25T12:29:31;100275.00;;;36.05;34.03
30421;BME280;17218;54.070;10.012;2022-07-25T12:31:59;100280.50;;;35.14;35.21
30421;BME280;17218;54.070;10.012;2022-07-25T12:34:25;100277.34;;;34.80;37.48
30421;BME280;17218;54.070;10.012;2022-07-25T12:36:52;100275.81;;;34.15;38.04